Homestead ARB Airport Homestead US
ICAO: KHST
IATA: HST
Category: Medium
Scheduled Services: No

Elevation: 5 ft
TransAlt. 18000 ft.

Airport Communications:
APP/DEP:123.8
ATIS:132.275
CLNC DEL:27.58
GCA:123.8
GND:121.75
93FS:138.025
PMSV METRO:31.865
COMD POST:25.21
PTD:37.22
TWR:133.45

KHST Zoom In..

If Map Doesn't Load, Click Here

Runways:

(A) RW 05 length 11200 ft width 300 ft
ILS 109.90 / hdg 52

(B) RW 23 length 11200 ft width 300 ft
---- / hdg 232

Location; KHST
Day. 23 / Time. 07.56 Zulu
* Altimeter: 29.92
* Temperature: 27° c. 80.6°f.
* Wind from: 000° Speed 00 kn.
Dewpoint: 24° c.
Visibility: 10 Statute Miles.
Clouds: Few 2300 ft.
Clouds: Scattered 3000 ft.

KHST 230756Z AUTO 00000KT 10SM FEW023 SCT030 27/24 A2992 RMK AO2 SLP135 T02700242 FZRANO VISNO RWY24 $


Wind - Calm.

 
 
jpsmedia.com for Web Design worldairports.se 2018   terms of use